KBBD/BBD METAR and TAF weather

Enter ICAO airport designator
Station Type Date Time Source
KBBD METAR 2020/07/06 20:55 UTC NOAA

KBBD 062055Z AUTO 14005KT 10SM CLR 29/20 A2994 RMK AO2


Station Type Date Time Source
KBBD Decoded METAR 2020/07/06 20:55 UTC NOAA

Brady, Curtis Field Airport, TX, United States (KBBD) 31-10-45N 099-19-26W
Jul 06, 2020 - 04:55 PM EDT / 2020.07.06 2055 UTC
Wind: from the SE (140 degrees) at 6 MPH (5 KT):0
Visibility: 10 mile(s):0
Sky conditions: clear
Temperature: 84 F (29 C)
Dew Point: 68 F (20 C)
Relative Humidity: 58%
Pressure (altimeter): 29.94 in. Hg (1013 hPa)
ob: KBBD 062055Z AUTO 14005KT 10SM CLR 29/20 A2994 RMK AO2
cycle: 21

Station Type Date Time Source
KBBD TAF 2020/07/06 18:39 UTC NOAA

TAF KBBD 061736Z 0618/0718 15005KT P6SM SCT060 BKN150
FM062100 14005KT P6SM VCTS BKN060CB
FM070600 13005KT P6SM SCT060 BKN150

Example: see airport list